Accueil
METAR-TAF:

METAR-TAF

Aéroports :

Enugu, Nigeria

latitude: 06-28N, longitude: 007-33E, altitude: 137 m

Observation

Le bulletin a été fait il y a 31 minutes, à 08:00 UTC
Vent 5 kt de sud/sud-ouest
Température 28°C
Humidité 74%
Pression 1013 hPa
Visibilité 10 km ou plus
Quelques nuages à une hauteur de 1000 ft

METAR: DNEN 090800Z 21005KT 9999 FEW010 28/23 Q1013 NOSIG

Heure: 09:31 (08:31 UTC)

Prévision

Le bulletin a été fait il y a 9 heures et 31 minutes, à 23:00 UTC
Prévision valable du 09 à 00 UTC au 10 à 06 UTC
Vent 2 kt de direction variable
Visibilité 10 km ou plus
Nuages épars à une hauteur de 900 ft
Probabilité 30% :
Temporairement
du 09 à 04 UTC au 09 à 07 UTC
Visibilité: 5000 m
brume
Evoluant progressivement
du 09 à 07 UTC au 09 à 09 UTC
Vent 10 kt de ouest/nord-ouest
Nuages fragmentés à une hauteur de 1200 ft

TAF: DNEN 082300Z 0900/1006 VRB02KT 9999 SCT009 PROB30 TEMPO 0904/0907 5000 BR BECMG 0907/0909 30010KT BKN012

Observations et prévisions météorologiques de plus de 4000 aéroports (messages METAR et TAF).

Les stations disponibles sont représentées par des disques jaunes et rouges sur la carte.

Passer la souris dessus pour voir le nom de la station.

Cliquer dessus pour voir les observations et prévisions météorologiques.

Pour changer de carte: cliquez sur les boutons verts avec une croix noire pour zoomer, sur le bouton vert avec un tiret pour effectuer un zoom arrière, ou sur les flèches vertes pour les cartes adjacentes.


METAR-TAF: